createdAt,value
2022-11-16T00:01:00.903Z,100211.62
2022-11-16T00:02:04.093Z,100206.47
2022-11-16T00:03:06.764Z,100199.47
2022-11-16T00:04:11.982Z,100202.09
2022-11-16T00:05:15.054Z,100198.62
2022-11-16T00:06:18.194Z,100193.50
2022-11-16T00:07:21.334Z,100200.47
2022-11-16T00:08:24.377Z,100199.56
2022-11-16T00:09:28.879Z,100196.13
2022-11-16T00:10:31.503Z,100189.19
2022-11-16T00:11:34.805Z,100187.41
2022-11-16T00:12:39.515Z,100189.97
2022-11-16T00:13:43.618Z,100188.44
2022-11-16T00:14:46.303Z,100183.34
2022-11-16T00:15:58.526Z,100188.34
2022-11-16T00:17:02.846Z,100185.03
2022-11-16T00:18:05.872Z,100185.87
2022-11-16T00:19:10.588Z,100182.44
2022-11-16T00:20:13.352Z,100178.84
2022-11-16T00:21:16.011Z,100183.91
2022-11-16T00:22:18.663Z,100180.47
2022-11-16T00:23:22.308Z,100178.69
2022-11-16T00:24:25.200Z,100177.06
2022-11-16T00:25:29.051Z,100172.69
2022-11-16T00:26:31.895Z,100179.41
2022-11-16T00:27:34.724Z,100176.72
2022-11-16T00:28:37.797Z,100174.03
2022-11-16T00:29:40.464Z,100170.50
2022-11-16T00:30:43.507Z,100173.13
2022-11-16T00:31:46.623Z,100176.50
2022-11-16T00:32:49.241Z,100172.13
2022-11-16T00:33:52.526Z,100168.59
2022-11-16T00:34:55.549Z,100174.75
2022-11-16T00:35:58.280Z,100173.91
2022-11-16T00:37:01.119Z,100173.06
2022-11-16T00:38:03.814Z,100173.91
2022-11-16T00:39:06.792Z,100173.75
2022-11-16T00:40:10.549Z,100173.75
2022-11-16T00:41:13.452Z,100178.00
2022-11-16T00:42:16.032Z,100178.00
2022-11-16T00:43:19.138Z,100175.31
2022-11-16T00:44:22.117Z,100175.31
2022-11-16T00:45:24.718Z,100178.00
2022-11-16T00:46:27.442Z,100172.78
2022-11-16T00:47:30.190Z,100173.75
2022-11-16T00:48:33.130Z,100177.28
2022-11-16T00:49:38.485Z,100175.66
2022-11-16T00:50:41.540Z,100174.03
2022-11-16T00:51:44.223Z,100175.03
2022-11-16T00:52:46.946Z,100177.72
2022-11-16T00:53:49.728Z,100169.94
2022-11-16T00:54:52.748Z,100170.78
2022-11-16T00:55:55.460Z,100171.56
2022-11-16T00:56:58.112Z,100164.53
2022-11-16T00:58:01.812Z,100162.78
2022-11-16T00:59:04.902Z,100166.22
2022-11-16T01:00:09.390Z,100160.16
2022-11-16T01:01:12.374Z,100158.41
2022-11-16T01:02:15.308Z,100161.06
2022-11-16T01:03:18.023Z,100151.50
2022-11-16T01:04:22.029Z,100151.50
2022-11-16T01:05:25.242Z,100147.19
2022-11-16T01:06:28.218Z,100145.41
2022-11-16T01:07:30.871Z,100143.69
2022-11-16T01:08:35.246Z,100139.44
2022-11-16T01:09:38.119Z,100127.38
2022-11-16T01:10:42.002Z,100133.28
2022-11-16T01:12:04.845Z,100133.28
2022-11-16T01:13:07.982Z,100132.47
2022-11-16T01:14:11.839Z,100126.25
2022-11-16T01:15:15.651Z,100132.31
2022-11-16T01:16:20.651Z,100134.00
2022-11-16T01:17:23.338Z,100131.34
2022-11-16T01:18:25.991Z,100126.13
2022-11-16T01:19:28.804Z,100128.72
2022-11-16T01:20:31.705Z,100133.00
2022-11-16T01:21:34.762Z,100131.25
2022-11-16T01:22:38.935Z,100121.78
2022-11-16T01:23:41.630Z,100126.81
2022-11-16T01:24:46.769Z,100126.75
2022-11-16T01:25:57.478Z,100128.50
2022-11-16T01:27:01.044Z,100116.25
2022-11-16T01:28:04.087Z,100116.25
2022-11-16T01:29:07.281Z,100114.47
2022-11-16T01:30:13.367Z,100117.22
2022-11-16T01:31:17.253Z,100113.72
2022-11-16T01:32:20.534Z,100112.84
2022-11-16T01:33:23.744Z,100104.25
2022-11-16T01:34:27.028Z,100108.56
2022-11-16T01:35:30.362Z,100099.94
2022-11-16T01:36:33.325Z,100106.00
2022-11-16T01:37:37.182Z,100110.38
2022-11-16T01:38:45.737Z,100107.78
2022-11-16T01:39:50.056Z,100106.88
2022-11-16T01:40:52.847Z,100101.66
2022-11-16T01:41:55.696Z,100104.25
2022-11-16T01:42:58.669Z,100105.94
2022-11-16T01:44:04.586Z,100101.56
2022-11-16T01:45:31.219Z,100103.19
2022-11-16T01:46:34.344Z,100099.75
2022-11-16T01:47:37.216Z,100098.06
2022-11-16T01:48:40.238Z,100096.22
2022-11-16T01:49:56.583Z,100091.97
2022-11-16T01:51:00.451Z,100091.97
2022-11-16T01:52:08.564Z,100091.13
2022-11-16T01:53:13.348Z,100080.78
2022-11-16T01:54:16.929Z,100084.94
2022-11-16T01:55:22.741Z,100079.72
2022-11-16T01:56:27.699Z,100080.56
2022-11-16T01:57:35.588Z,100072.69
2022-11-16T01:58:39.597Z,100076.03
2022-11-16T01:59:46.301Z,100068.31
2022-11-16T02:00:49.332Z,100067.47
2022-11-16T02:01:53.065Z,100063.91
2022-11-16T02:02:56.442Z,100063.91
2022-11-16T02:04:01.065Z,100059.69
2022-11-16T02:05:04.669Z,100062.25
2022-11-16T02:06:24.852Z,100061.41
2022-11-16T02:08:11.780Z,100057.94
2022-11-16T02:09:53.773Z,100051.97
2022-11-16T02:11:23.177Z,100047.59
2022-11-16T02:12:49.181Z,100049.25
2022-11-16T02:14:31.612Z,100049.94
2022-11-16T02:15:51.318Z,100045.59
2022-11-16T02:17:06.866Z,100044.72
2022-11-16T02:20:40.636Z,100061.06
2022-11-16T02:22:15.719Z,100061.06
2022-11-16T02:23:47.340Z,100059.41
2022-11-16T02:25:12.995Z,100052.56
2022-11-16T02:26:52.538Z,100051.72
2022-11-16T02:28:07.677Z,100042.28
2022-11-16T02:29:19.364Z,100047.50
2022-11-16T02:30:23.231Z,100045.75
2022-11-16T02:31:33.032Z,100050.03
2022-11-16T02:32:51.706Z,100046.50
2022-11-16T02:33:57.347Z,100048.28
2022-11-16T02:35:21.782Z,100040.44
2022-11-16T02:36:25.772Z,100037.84
2022-11-16T02:37:33.410Z,100040.44
2022-11-16T02:38:40.507Z,100039.59
2022-11-16T02:39:46.533Z,100043.91
2022-11-16T02:40:55.773Z,100041.38
2022-11-16T02:42:01.811Z,100040.53
2022-11-16T02:43:10.132Z,100037.84
2022-11-16T02:44:17.986Z,100032.78
2022-11-16T02:45:25.597Z,100031.94
2022-11-16T02:46:32.403Z,100046.66
2022-11-16T02:47:36.467Z,100032.78
2022-11-16T02:48:47.382Z,100038.78
2022-11-16T02:49:59.543Z,100032.63
2022-11-16T02:51:06.504Z,100036.16
2022-11-16T02:52:11.879Z,100032.56
2022-11-16T02:53:15.478Z,100040.31
2022-11-16T02:54:20.905Z,100031.47
2022-11-16T02:55:27.637Z,100033.25
2022-11-16T02:56:52.864Z,100031.47
2022-11-16T02:58:00.702Z,100027.88
2022-11-16T02:59:03.763Z,100037.47
2022-11-16T03:00:08.848Z,100028.78
2022-11-16T03:01:35.797Z,100029.81
2022-11-16T03:02:59.512Z,100029.72
2022-11-16T03:04:08.984Z,100024.50
2022-11-16T03:05:18.059Z,100018.28
2022-11-16T03:06:27.884Z,100015.75
2022-11-16T03:07:36.860Z,100016.66
2022-11-16T03:08:53.292Z,100018.34
2022-11-16T03:09:58.111Z,100016.81
2022-11-16T03:11:22.545Z,100015.97
2022-11-16T03:12:31.199Z,100011.53
2022-11-16T03:13:37.286Z,100015.00
2022-11-16T03:14:53.618Z,100008.00
2022-11-16T03:15:58.103Z,100008.84
2022-11-16T03:17:03.803Z,100001.03
2022-11-16T03:18:08.880Z,100005.41
2022-11-16T03:19:15.614Z,100008.00
2022-11-16T03:20:31.975Z,100006.25
2022-11-16T03:21:43.626Z,100004.56
2022-11-16T03:22:57.566Z,100008.84
2022-11-16T03:24:00.422Z,99996.88
2022-11-16T03:25:04.979Z,100003.63
2022-11-16T03:26:11.984Z,99994.28
2022-11-16T03:27:29.927Z,100004.47
2022-11-16T03:28:43.877Z,100000.09
2022-11-16T03:29:52.822Z,99989.06
2022-11-16T03:31:01.086Z,100000.97
2022-11-16T03:32:20.784Z,99998.41
2022-11-16T03:33:34.777Z,99993.19
2022-11-16T03:34:41.724Z,100000.19
2022-11-16T03:35:50.457Z,99998.41
2022-11-16T03:36:55.938Z,99993.28
2022-11-16T03:38:02.497Z,99978.69
2022-11-16T03:39:19.609Z,99972.78
2022-11-16T03:40:24.670Z,99979.47
2022-11-16T03:41:30.036Z,99983.69
2022-11-16T03:42:33.486Z,99977.69
2022-11-16T03:43:39.092Z,99975.09
2022-11-16T03:44:46.590Z,99971.53
2022-11-16T03:45:49.608Z,99975.94
2022-11-16T03:46:52.676Z,99980.25
2022-11-16T03:47:55.469Z,99973.25
2022-11-16T03:48:59.633Z,99972.56
2022-11-16T03:50:02.558Z,99971.00
2022-11-16T03:51:07.967Z,99970.19
2022-11-16T03:52:11.172Z,99967.78
2022-11-16T03:53:13.819Z,99976.31
2022-11-16T03:54:17.061Z,99970.19
2022-11-16T03:55:20.200Z,99976.16
2022-11-16T03:56:23.129Z,99971.78
2022-11-16T03:57:26.807Z,99971.84
2022-11-16T03:58:30.539Z,99962.34
2022-11-16T03:59:34.052Z,99960.56
2022-11-16T04:00:36.748Z,99965.72
2022-11-16T04:01:44.901Z,99957.06
2022-11-16T04:02:48.191Z,99957.97
2022-11-16T04:03:51.051Z,99954.53
2022-11-16T04:05:12.550Z,99955.37
2022-11-16T04:06:33.716Z,99949.31
2022-11-16T04:07:55.290Z,99950.25
2022-11-16T04:09:16.908Z,99947.78
2022-11-16T04:10:38.663Z,99937.34
2022-11-16T04:12:00.007Z,99933.97
2022-11-16T04:13:22.085Z,99925.37
2022-11-16T04:14:45.472Z,99921.91
2022-11-16T04:16:07.380Z,99920.16
2022-11-16T04:17:33.018Z,99925.37
2022-11-16T04:18:54.614Z,99923.59
2022-11-16T04:20:16.420Z,99917.47
2022-11-16T04:21:44.573Z,99926.13
2022-11-16T04:23:18.493Z,99920.84
2022-11-16T04:24:25.118Z,99923.53
2022-11-16T04:25:32.506Z,99916.50
2022-11-16T04:26:54.353Z,99918.16
2022-11-16T04:28:16.631Z,99918.22
2022-11-16T04:29:20.042Z,99921.75
2022-11-16T04:30:22.988Z,99919.16
2022-11-16T04:31:44.589Z,99917.37
2022-11-16T04:33:06.756Z,99914.72
2022-11-16T04:34:27.988Z,99913.72
2022-11-16T04:35:49.716Z,99912.78
2022-11-16T04:37:10.941Z,99918.84
2022-11-16T04:38:14.459Z,99917.06
2022-11-16T04:39:17.150Z,99918.00
2022-11-16T04:40:23.331Z,99919.84
2022-11-16T04:41:45.371Z,99917.31
2022-11-16T04:42:52.384Z,99910.34
2022-11-16T04:43:55.142Z,99899.28
2022-11-16T04:45:23.647Z,99906.91
2022-11-16T04:46:45.371Z,99904.34
2022-11-16T04:47:49.757Z,99900.06
2022-11-16T04:48:53.303Z,99891.41
2022-11-16T04:49:56.009Z,99898.22
2022-11-16T04:50:58.855Z,99897.38
2022-11-16T04:52:02.267Z,99891.31
2022-11-16T04:53:06.671Z,99893.03
2022-11-16T04:54:10.229Z,99893.84
2022-11-16T04:55:13.935Z,99898.38
2022-11-16T04:56:16.902Z,99892.31
2022-11-16T04:57:20.874Z,99890.62
2022-11-16T04:58:24.115Z,99891.47
2022-11-16T04:59:26.760Z,99891.41
2022-11-16T05:00:30.028Z,99893.16
2022-11-16T05:01:51.545Z,99895.69
2022-11-16T05:02:59.743Z,99893.22
2022-11-16T05:04:04.480Z,99896.69
2022-11-16T05:05:08.040Z,99892.41
2022-11-16T05:06:10.911Z,99894.91
2022-11-16T05:07:15.227Z,99897.47
2022-11-16T05:08:18.463Z,99892.25
2022-11-16T05:09:21.483Z,99890.47
2022-11-16T05:10:24.705Z,99892.25
2022-11-16T05:11:27.947Z,99893.03
2022-11-16T05:12:31.210Z,99895.63
2022-11-16T05:13:34.369Z,99899.12
2022-11-16T05:14:37.432Z,99896.47
2022-11-16T05:15:40.250Z,99901.69
2022-11-16T05:16:43.209Z,99894.75
2022-11-16T05:17:46.732Z,99893.91
2022-11-16T05:19:09.780Z,99894.06
2022-11-16T05:20:31.370Z,99891.41
2022-11-16T05:21:34.409Z,99894.84
2022-11-16T05:22:37.555Z,99893.16
2022-11-16T05:23:58.677Z,99891.41
2022-11-16T05:25:02.088Z,99884.41
2022-11-16T05:26:04.916Z,99889.69
2022-11-16T05:27:11.100Z,99887.19
2022-11-16T05:28:13.972Z,99893.84
2022-11-16T05:29:16.808Z,99893.75
2022-11-16T05:30:19.779Z,99885.19
2022-11-16T05:31:22.696Z,99882.66
2022-11-16T05:32:27.359Z,99894.63
2022-11-16T05:33:32.585Z,99897.31
2022-11-16T05:34:35.312Z,99894.84
2022-11-16T05:35:38.453Z,99890.41
2022-11-16T05:36:42.335Z,99892.16
2022-11-16T05:37:44.917Z,99886.19
2022-11-16T05:38:53.890Z,99886.87
2022-11-16T05:39:59.429Z,99883.31
2022-11-16T05:41:03.647Z,99891.94
2022-11-16T05:42:07.149Z,99882.50
2022-11-16T05:43:09.819Z,99886.81
2022-11-16T05:44:13.609Z,99893.06
2022-11-16T05:45:20.846Z,99887.19
2022-11-16T05:46:25.000Z,99894.75
2022-11-16T05:47:29.100Z,99890.41
2022-11-16T05:48:32.750Z,99894.84
2022-11-16T05:49:35.777Z,99889.63
2022-11-16T05:50:42.770Z,99885.34
2022-11-16T05:51:48.026Z,99881.81
2022-11-16T05:52:50.899Z,99882.75
2022-11-16T05:53:53.839Z,99884.41
2022-11-16T05:54:56.874Z,99880.88
2022-11-16T05:55:59.900Z,99880.88
2022-11-16T05:57:03.488Z,99877.28
2022-11-16T05:58:06.196Z,99883.41
2022-11-16T05:59:15.217Z,99882.59
2022-11-16T06:00:19.688Z,99876.44
2022-11-16T06:01:23.383Z,99884.31
2022-11-16T06:02:26.164Z,99881.66
2022-11-16T06:03:30.313Z,99880.81
2022-11-16T06:04:33.934Z,99883.47
2022-11-16T06:05:40.524Z,99884.19
2022-11-16T06:06:44.738Z,99878.13
2022-11-16T06:07:47.627Z,99874.59
2022-11-16T06:08:50.390Z,99861.16
2022-11-16T06:09:53.597Z,99873.81
2022-11-16T06:10:57.051Z,99867.69
2022-11-16T06:12:00.717Z,99872.91
2022-11-16T06:13:04.161Z,99871.06
2022-11-16T06:14:08.139Z,99875.34
2022-11-16T06:15:11.375Z,99868.44
2022-11-16T06:16:14.426Z,99872.69
2022-11-16T06:17:18.205Z,99866.78
2022-11-16T06:18:21.372Z,99868.28
2022-11-16T06:19:29.595Z,99869.13
2022-11-16T06:20:37.510Z,99864.00
2022-11-16T06:21:40.398Z,99864.00
2022-11-16T06:22:43.964Z,99869.97
2022-11-16T06:23:47.361Z,99867.38
2022-11-16T06:24:50.071Z,99866.47
2022-11-16T06:25:55.667Z,99868.97
2022-11-16T06:26:58.866Z,99867.22
2022-11-16T06:28:07.522Z,99868.12
2022-11-16T06:29:11.043Z,99863.84
2022-11-16T06:30:14.328Z,99857.66
2022-11-16T06:31:17.115Z,99861.09
2022-11-16T06:32:20.147Z,99858.38
2022-11-16T06:33:23.826Z,99862.69
2022-11-16T06:34:26.498Z,99855.78
2022-11-16T06:35:29.252Z,99853.09
2022-11-16T06:36:32.970Z,99853.09
2022-11-16T06:37:35.638Z,99852.16
2022-11-16T06:38:39.052Z,99860.00
2022-11-16T06:39:42.316Z,99855.56
2022-11-16T06:40:46.409Z,99857.31
2022-11-16T06:41:49.056Z,99843.81
2022-11-16T06:42:51.693Z,99851.06
2022-11-16T06:43:55.440Z,99847.56
2022-11-16T06:44:59.092Z,99854.56
2022-11-16T06:46:02.078Z,99854.56
2022-11-16T06:47:04.771Z,99851.84
2022-11-16T06:48:08.400Z,99853.63
2022-11-16T06:49:12.176Z,99852.78
2022-11-16T06:50:19.190Z,99851.06
2022-11-16T06:51:21.911Z,99843.19
2022-11-16T06:52:24.493Z,99852.78
2022-11-16T06:53:29.473Z,99844.97
2022-11-16T06:54:33.605Z,99856.28
2022-11-16T06:55:37.225Z,99852.78
2022-11-16T06:56:40.156Z,99857.06
2022-11-16T06:57:43.325Z,99842.50
2022-11-16T06:58:45.924Z,99856.22
2022-11-16T06:59:50.888Z,99851.84
2022-11-16T07:00:53.759Z,99851.94
2022-11-16T07:01:56.645Z,99847.47
2022-11-16T07:02:59.227Z,99849.41
2022-11-16T07:04:02.047Z,99851.00
2022-11-16T07:05:05.978Z,99851.06
2022-11-16T07:06:10.690Z,99847.41
2022-11-16T07:07:15.801Z,99854.31
2022-11-16T07:08:18.499Z,99844.69
2022-11-16T07:09:21.359Z,99847.41
2022-11-16T07:10:24.516Z,99846.56
2022-11-16T07:11:27.819Z,99849.25
2022-11-16T07:12:30.510Z,99850.19
2022-11-16T07:13:34.118Z,99849.25
2022-11-16T07:14:37.471Z,99846.47
2022-11-16T07:15:40.579Z,99841.25
2022-11-16T07:16:43.610Z,99841.19
2022-11-16T07:17:46.740Z,99849.91
2022-11-16T07:18:49.502Z,99835.97
2022-11-16T07:19:52.566Z,99837.75
2022-11-16T07:20:55.547Z,99840.25
2022-11-16T07:21:58.121Z,99836.81
2022-11-16T07:23:02.512Z,99832.44
2022-11-16T07:24:05.239Z,99818.87
2022-11-16T07:25:08.529Z,99825.53
2022-11-16T07:26:11.987Z,99834.97
2022-11-16T07:27:14.873Z,99833.25
2022-11-16T07:28:18.948Z,99825.44
2022-11-16T07:29:22.703Z,99822.81
2022-11-16T07:30:34.777Z,99822.81
2022-11-16T07:31:37.961Z,99828.06
2022-11-16T07:32:46.233Z,99817.78
2022-11-16T07:33:49.321Z,99822.00
2022-11-16T07:34:52.527Z,99822.00
2022-11-16T07:36:00.094Z,99812.50
2022-11-16T07:37:03.066Z,99809.09
2022-11-16T07:38:05.640Z,99814.25
2022-11-16T07:39:10.346Z,99814.16
2022-11-16T07:40:14.101Z,99819.38
2022-11-16T07:41:19.478Z,99818.44
2022-11-16T07:42:23.417Z,99816.72
2022-11-16T07:43:26.639Z,99819.31
2022-11-16T07:44:30.375Z,99811.41
2022-11-16T07:45:34.090Z,99817.44
2022-11-16T07:46:47.914Z,99811.31
2022-11-16T07:47:52.504Z,99813.06
2022-11-16T07:48:57.064Z,99814.69
2022-11-16T07:50:01.479Z,99812.06
2022-11-16T07:51:06.886Z,99806.69
2022-11-16T07:52:11.201Z,99807.34
2022-11-16T07:53:15.566Z,99805.94
2022-11-16T07:54:18.158Z,99812.06
2022-11-16T07:55:20.782Z,99815.44
2022-11-16T07:56:24.921Z,99811.16
2022-11-16T07:57:27.601Z,99806.62
2022-11-16T07:58:33.651Z,99811.56
2022-11-16T07:59:37.953Z,99808.06
2022-11-16T08:00:40.729Z,99800.12
2022-11-16T08:01:43.966Z,99806.19
2022-11-16T08:02:46.787Z,99801.13
2022-11-16T08:03:53.488Z,99799.28
2022-11-16T08:04:56.161Z,99800.12
2022-11-16T08:06:04.567Z,99801.84
2022-11-16T08:07:08.679Z,99802.75
2022-11-16T08:08:12.989Z,99799.91
2022-11-16T08:09:15.784Z,99805.84
2022-11-16T08:10:19.082Z,99799.72
2022-11-16T08:11:21.772Z,99795.34
2022-11-16T08:12:25.342Z,99788.69
2022-11-16T08:13:28.545Z,99798.03
2022-11-16T08:14:31.576Z,99793.56
2022-11-16T08:15:34.228Z,99797.84
2022-11-16T08:16:37.517Z,99790.91
2022-11-16T08:17:41.417Z,99796.03
2022-11-16T08:18:47.089Z,99797.69
2022-11-16T08:19:51.240Z,99799.41
2022-11-16T08:20:54.498Z,99791.56
2022-11-16T08:21:57.997Z,99794.94
2022-11-16T08:23:02.298Z,99798.28
2022-11-16T08:24:07.544Z,99789.56
2022-11-16T08:25:12.369Z,99792.06
2022-11-16T08:26:18.538Z,99792.00
2022-11-16T08:27:21.455Z,99790.22
2022-11-16T08:28:26.470Z,99785.84
2022-11-16T08:29:29.581Z,99785.75
2022-11-16T08:30:32.609Z,99789.97
2022-11-16T08:31:35.884Z,99789.72
2022-11-16T08:32:39.123Z,99792.22
2022-11-16T08:33:42.203Z,99792.16
2022-11-16T08:34:45.757Z,99793.94
2022-11-16T08:35:48.796Z,99788.72
2022-11-16T08:36:51.533Z,99795.78
2022-11-16T08:37:54.429Z,99798.22
2022-11-16T08:38:58.877Z,99796.53
2022-11-16T08:40:03.317Z,99792.22
2022-11-16T08:41:07.295Z,99794.84
2022-11-16T08:42:10.042Z,99796.53
2022-11-16T08:43:12.918Z,99794.78
2022-11-16T08:44:15.821Z,99796.28
2022-11-16T08:45:18.999Z,99792.81
2022-11-16T08:46:22.198Z,99797.88
2022-11-16T08:47:25.354Z,99796.88
2022-11-16T08:48:28.164Z,99796.75
2022-11-16T08:49:31.959Z,99794.25
2022-11-16T08:50:55.518Z,99792.47
2022-11-16T08:51:57.254Z,99795.09
2022-11-16T08:53:00.293Z,99802.00
2022-11-16T08:54:04.092Z,99789.69
2022-11-16T08:55:07.706Z,99802.00
2022-11-16T08:56:13.379Z,99792.41
2022-11-16T08:57:16.191Z,99795.03
2022-11-16T08:58:19.055Z,99793.41
2022-11-16T08:59:21.711Z,99793.31
2022-11-16T09:00:25.424Z,99796.75
2022-11-16T09:01:30.137Z,99783.31
2022-11-16T09:02:32.851Z,99788.25
2022-11-16T09:03:36.038Z,99787.44
2022-11-16T09:04:38.684Z,99784.66
2022-11-16T09:05:42.663Z,99789.97
2022-11-16T09:06:46.149Z,99790.03
2022-11-16T09:07:48.762Z,99781.25
2022-11-16T09:08:51.737Z,99783.88
2022-11-16T09:09:54.356Z,99789.28
2022-11-16T09:10:57.498Z,99788.25
2022-11-16T09:12:00.080Z,99790.03
2022-11-16T09:13:03.203Z,99787.53
2022-11-16T09:14:12.742Z,99790.03
2022-11-16T09:15:15.542Z,99782.13
2022-11-16T09:16:21.067Z,99785.75
2022-11-16T09:17:23.815Z,99784.56
2022-11-16T09:18:27.488Z,99775.88
2022-11-16T09:19:30.410Z,99782.53
2022-11-16T09:20:33.239Z,99775.53
2022-11-16T09:21:37.696Z,99777.31
2022-11-16T09:22:40.424Z,99772.84
2022-11-16T09:23:42.980Z,99776.22
2022-11-16T09:24:45.615Z,99771.06
2022-11-16T09:25:48.660Z,99764.75
2022-11-16T09:26:51.673Z,99775.03
2022-11-16T09:27:55.813Z,99774.16
2022-11-16T09:29:00.783Z,99772.31
2022-11-16T09:30:05.214Z,99767.75
2022-11-16T09:31:09.245Z,99769.28
2022-11-16T09:32:12.118Z,99764.97
2022-11-16T09:33:14.908Z,99758.84
2022-11-16T09:34:17.525Z,99760.50
2022-11-16T09:35:21.006Z,99757.06
2022-11-16T09:36:24.338Z,99763.00
2022-11-16T09:37:27.702Z,99761.16
2022-11-16T09:38:54.182Z,99761.16
2022-11-16T09:39:53.331Z,99759.56
2022-11-16T09:40:56.613Z,99761.16
2022-11-16T09:42:53.741Z,99758.38
2022-11-16T09:44:09.586Z,99756.41
2022-11-16T09:45:24.986Z,99753.62
2022-11-16T09:46:39.268Z,99754.56
2022-11-16T09:47:51.809Z,99751.88
2022-11-16T09:48:58.331Z,99747.00
2022-11-16T09:50:04.373Z,99747.34
2022-11-16T09:51:09.035Z,99732.19
2022-11-16T09:52:41.432Z,99742.03
2022-11-16T09:54:06.079Z,99744.06
2022-11-16T09:55:58.578Z,99744.41
2022-11-16T09:57:12.033Z,99739.12
2022-11-16T09:58:22.261Z,99733.53
2022-11-16T09:59:26.267Z,99726.59
2022-11-16T10:00:30.725Z,99729.31
2022-11-16T10:01:41.472Z,99733.53
2022-11-16T10:02:58.340Z,99737.94
2022-11-16T10:04:08.822Z,99728.38
2022-11-16T10:05:21.965Z,99720.47
2022-11-16T10:06:38.807Z,99722.25
2022-11-16T10:07:55.367Z,99723.91
2022-11-16T10:08:58.037Z,99725.59
2022-11-16T10:10:00.729Z,99715.12
2022-11-16T10:11:19.822Z,99719.28
2022-11-16T10:12:56.110Z,99714.13
2022-11-16T10:14:23.776Z,99715.84
2022-11-16T10:15:53.192Z,99708.06
2022-11-16T10:17:40.002Z,99707.88
2022-11-16T10:18:48.087Z,99702.66
2022-11-16T10:19:57.083Z,99714.97
2022-11-16T10:21:18.763Z,99702.19
2022-11-16T10:22:33.329Z,99700.22
2022-11-16T10:24:03.041Z,99701.00
2022-11-16T10:25:15.126Z,99701.00
2022-11-16T10:26:25.987Z,99703.03
2022-11-16T10:27:44.703Z,99697.31
2022-11-16T10:29:10.264Z,99690.38
2022-11-16T10:30:17.250Z,99690.22
2022-11-16T10:31:33.607Z,99693.59
2022-11-16T10:33:06.668Z,99693.69
2022-11-16T10:34:30.393Z,99693.41
2022-11-16T10:35:53.744Z,99682.13
2022-11-16T10:37:03.334Z,99688.94
2022-11-16T10:38:14.614Z,99694.81
2022-11-16T10:39:19.345Z,99691.38
2022-11-16T10:40:32.931Z,99679.50
2022-11-16T10:41:41.481Z,99695.00
2022-11-16T10:42:46.787Z,99688.75
2022-11-16T10:43:49.673Z,99686.97
2022-11-16T10:45:17.923Z,99641.59
2022-11-16T10:46:25.718Z,99680.81
2022-11-16T10:47:54.161Z,99678.03
2022-11-16T10:49:21.836Z,99677.94
2022-11-16T10:50:37.523Z,99673.47
2022-11-16T10:51:40.278Z,99678.59
2022-11-16T10:52:44.660Z,99673.37
2022-11-16T10:53:47.473Z,99667.19
2022-11-16T10:54:50.278Z,99665.31
2022-11-16T10:56:11.742Z,99662.56
2022-11-16T10:57:14.438Z,99667.72
2022-11-16T10:58:17.545Z,99665.13
2022-11-16T10:59:20.942Z,99666.97
2022-11-16T11:00:47.295Z,99665.37
2022-11-16T11:01:57.598Z,99667.03
2022-11-16T11:03:00.226Z,99675.81
2022-11-16T11:04:22.857Z,99660.91
2022-11-16T11:05:26.978Z,99662.56
2022-11-16T11:06:29.812Z,99664.44
2022-11-16T11:07:39.949Z,99663.53
2022-11-16T11:08:43.035Z,99657.47
2022-11-16T11:09:52.801Z,99659.22
2022-11-16T11:11:24.256Z,99657.53
2022-11-16T11:12:39.472Z,99656.69
2022-11-16T11:13:42.120Z,99654.25
2022-11-16T11:15:12.188Z,99651.69
2022-11-16T11:16:17.882Z,99650.78
2022-11-16T11:17:20.419Z,99650.69
2022-11-16T11:18:23.280Z,99647.22
2022-11-16T11:19:29.567Z,99656.94
2022-11-16T11:20:32.347Z,99646.41
2022-11-16T11:21:35.267Z,99643.69
2022-11-16T11:22:46.399Z,99645.47
2022-11-16T11:23:52.443Z,99639.31
2022-11-16T11:24:55.309Z,99634.97
2022-11-16T11:26:00.370Z,99633.94
2022-11-16T11:27:03.514Z,99629.72
2022-11-16T11:28:18.780Z,99638.28
2022-11-16T11:29:32.205Z,99636.63
2022-11-16T11:30:36.198Z,99626.81
2022-11-16T11:31:46.466Z,99633.81
2022-11-16T11:32:50.525Z,99632.16
2022-11-16T11:33:58.204Z,99637.38
2022-11-16T11:35:02.995Z,99634.59
2022-11-16T11:36:10.743Z,99624.88
2022-11-16T11:37:26.009Z,99623.84
2022-11-16T11:38:29.847Z,99623.84
2022-11-16T11:39:35.745Z,99616.00
2022-11-16T11:40:38.750Z,99613.13
2022-11-16T11:41:44.635Z,99608.81
2022-11-16T11:42:59.200Z,99608.62
2022-11-16T11:44:20.839Z,99608.53
2022-11-16T11:45:27.906Z,99602.84
2022-11-16T11:47:18.268Z,99610.50
2022-11-16T11:48:05.963Z,99609.66
2022-11-16T11:49:35.073Z,99611.72
2022-11-16T11:50:56.889Z,99605.53
2022-11-16T11:52:06.760Z,99603.78
2022-11-16T11:53:12.185Z,99606.47
2022-11-16T11:54:29.203Z,99598.63
2022-11-16T11:55:31.918Z,99600.50
2022-11-16T11:56:34.930Z,99599.59
2022-11-16T11:57:42.332Z,99606.59
2022-11-16T11:58:47.067Z,99595.47
2022-11-16T11:59:53.041Z,99602.38
2022-11-16T12:00:56.153Z,99600.78
2022-11-16T12:02:04.920Z,99595.56
2022-11-16T12:03:19.748Z,99602.28
2022-11-16T12:05:00.910Z,99596.13
2022-11-16T12:06:18.786Z,99596.97
2022-11-16T12:07:46.366Z,99598.06
2022-11-16T12:09:18.666Z,99598.06
2022-11-16T12:10:46.443Z,99595.56
2022-11-16T12:12:13.333Z,99591.19
2022-11-16T12:13:22.269Z,99590.22
2022-11-16T12:14:49.477Z,99595.38
2022-11-16T12:16:19.262Z,99591.81
2022-11-16T12:17:44.402Z,99591.75
2022-11-16T12:19:08.620Z,99589.84
2022-11-16T12:20:46.733Z,99581.28
2022-11-16T12:21:49.349Z,99571.66
2022-11-16T12:23:04.309Z,99575.94
2022-11-16T12:24:07.562Z,99581.19
2022-11-16T12:25:18.991Z,99583.06
2022-11-16T12:26:40.099Z,99583.97
2022-11-16T12:28:16.117Z,99585.31
2022-11-16T12:29:29.590Z,99577.16
2022-11-16T12:30:37.969Z,99574.56
2022-11-16T12:32:09.187Z,99571.75
2022-11-16T12:33:48.493Z,99572.50
2022-11-16T12:35:12.555Z,99574.28
2022-11-16T12:36:37.104Z,99569.31
2022-11-16T12:38:04.656Z,99572.97
2022-11-16T12:40:05.087Z,99572.88
2022-11-16T12:41:31.808Z,99574.47
2022-11-16T12:53:48.866Z,99563.62
2022-11-16T12:55:27.250Z,99563.62
2022-11-16T12:56:49.431Z,99570.34
2022-11-16T12:58:11.707Z,99560.81
2022-11-16T12:59:24.810Z,99565.31
2022-11-16T13:00:30.324Z,99567.91
2022-11-16T13:01:38.069Z,99562.62
2022-11-16T13:03:29.518Z,99561.78
2022-11-16T13:04:42.449Z,99554.84
2022-11-16T13:06:03.752Z,99559.16
2022-11-16T13:07:19.551Z,99556.63
2022-11-16T13:08:37.691Z,99559.16
2022-11-16T13:09:44.780Z,99550.75
2022-11-16T13:10:50.845Z,99557.28
2022-11-16T13:12:01.827Z,99558.22
2022-11-16T13:13:35.370Z,99559.87
2022-11-16T13:14:41.152Z,99554.66
2022-11-16T13:15:47.985Z,99554.66
2022-11-16T13:16:52.202Z,99556.34
2022-11-16T13:18:01.951Z,99558.97
2022-11-16T13:19:07.520Z,99558.22
2022-11-16T13:20:16.031Z,99555.88
2022-11-16T13:21:40.454Z,99555.78
2022-11-16T13:22:55.833Z,99564.38
2022-11-16T13:24:18.010Z,99552.34
2022-11-16T13:26:10.699Z,99550.66
2022-11-16T13:27:36.558Z,99547.12
2022-11-16T13:28:54.721Z,99538.25
2022-11-16T13:30:15.772Z,99538.25
2022-11-16T13:31:24.008Z,99536.66
2022-11-16T13:32:32.733Z,99534.88
2022-11-16T13:33:49.299Z,99539.09
2022-11-16T13:34:54.528Z,99537.31